Latest Weather Observations for Fawkner Beacon

IDV60901

Issued at 12:11 pm EST Sunday 14 April 2024 (issued every 10 minutes, with the page automatically refreshed every 10 minutes)

About weather observations | Map of Melbourne area stations | Latest observations for Melbourne area | Other Formats
Station Details ID: 086376 Name: FAWKNER BEACON Lat: -37.95 Lon: 144.93 Height: 17.0 m
Data from the previous 72 hours. | See also: Recent months at Fawkner Beacon
Date/Time
EST
Temp
°C
App
Temp
°C
Dew
Point
°C
Rel
Hum
%
Delta-T
°C
Wind Press
QNH
hPa
Press
MSL
hPa
Rain since
9am
mm
Dir  Spd
km/h
Gust
km/h
Spd
kts
Gust
kts
14/12:00pm - - - - - SW 11 15 6 8 - - -
14/11:30am - - - - - SW 15 20 8 11 - - -
14/11:00am - - - - - WSW 15 20 8 11 - - -
14/10:30am - - - - - W 11 15 6 8 - - -
14/10:00am - - - - - WNW 9 11 5 6 - - -
14/09:30am - - - - - WNW 7 11 4 6 - - -
14/09:00am - - - - - WNW 9 11 5 6 - - -
14/08:30am - - - - - W 9 11 5 6 - - -
14/08:00am - - - - - WNW 9 13 5 7 - - -
14/07:30am - - - - - W 9 13 5 7 - - -
14/07:00am - - - - - N 9 13 5 7 - - -
14/06:30am - - - - - N 13 15 7 8 - - -
14/06:00am - - - - - N 9 13 5 7 - - -
14/05:30am - - - - - N 9 11 5 6 - - -
14/05:00am - - - - - W 6 7 3 4 - - -
14/04:30am - - - - - W 7 7 4 4 - - -
14/04:00am - - - - - W 9 13 5 7 - - -
14/03:30am - - - - - NW 9 13 5 7 - - -
14/03:00am - - - - - NNW 9 13 5 7 - - -
14/02:30am - - - - - NNW 13 15 7 8 - - -
14/02:00am - - - - - N 9 13 5 7 - - -
14/01:30am - - - - - N 13 15 7 8 - - -
14/01:00am - - - - - NE 9 11 5 6 - - -
14/12:30am - - - - - ENE 11 13 6 7 - - -
14/12:00am - - - - - ENE 11 13 6 7 - - -
 
Date/Time
EST
Temp
°C
App
Temp
°C
Dew
Point
°C
Rel
Hum
%
Delta-T
°C
Wind Press
QNH
hPa
Press
MSL
hPa
Rain since
9am
mm
Dir  Spd
km/h
Gust
km/h
Spd
kts
Gust
kts
13/11:30pm - - - - - ENE 11 13 6 7 - - -
13/11:00pm - - - - - ENE 11 13 6 7 - - -
13/10:30pm - - - - - E 13 15 7 8 - - -
13/10:00pm - - - - - E 13 15 7 8 - - -
13/09:30pm - - - - - E 15 17 8 9 - - -
13/09:00pm - - - - - SE 15 20 8 11 - - -
13/08:30pm - - - - - SSE 13 15 7 8 - - -
13/08:00pm - - - - - SSE 13 15 7 8 - - -
13/07:30pm - - - - - SSE 11 15 6 8 - - -
13/07:00pm - - - - - SSE 11 15 6 8 - - -
13/06:30pm - - - - - SSE 11 13 6 7 - - -
13/06:00pm - - - - - SSE 11 15 6 8 - - -
13/05:30pm - - - - - SSE 11 15 6 8 - - -
13/05:00pm - - - - - S 13 15 7 8 - - -
13/04:30pm - - - - - S 11 15 6 8 - - -
13/04:00pm - - - - - S 9 13 5 7 - - -
13/03:30pm - - - - - SSW 7 11 4 6 - - -
13/03:00pm - - - - - SW 6 7 3 4 - - -
13/02:30pm - - - - - WSW 6 9 3 5 - - -
13/02:00pm - - - - - WSW 4 7 2 4 - - -
13/01:30pm - - - - - SW 7 11 4 6 - - -
13/01:00pm - - - - - SSW 9 13 5 7 - - -
13/12:30pm - - - - - SW 11 15 6 8 - - -
13/12:00pm - - - - - SW 13 17 7 9 - - -
13/11:30am - - - - - WSW 13 17 7 9 - - -
13/11:00am - - - - - WSW 15 20 8 11 - - -
13/10:30am - - - - - WSW 15 20 8 11 - - -
13/10:00am - - - - - WNW 9 13 5 7 - - -
13/09:30am - - - - - NW 11 15 6 8 - - -
13/09:00am - - - - - W 13 17 7 9 - - -
13/08:30am - - - - - W 20 24 11 13 - - -
13/08:00am - - - - - W 24 28 13 15 - - -
13/07:30am - - - - - W 26 30 14 16 - - -
13/07:00am - - - - - W 26 30 14 16 - - -
13/06:30am - - - - - W 26 30 14 16 - - -
13/06:00am - - - - - W 26 30 14 16 - - -
13/05:30am - - - - - W 26 32 14 17 - - -
13/05:00am - - - - - W 24 28 13 15 - - -
13/04:30am - - - - - WSW 26 28 14 15 - - -
13/04:00am - - - - - W 26 32 14 17 - - -
13/03:30am - - - - - WSW 28 35 15 19 - - -
13/03:00am - - - - - W 19 24 10 13 - - -
13/02:30am - - - - - W 20 24 11 13 - - -
13/02:00am - - - - - W 19 24 10 13 - - -
13/01:30am - - - - - W 20 24 11 13 - - -
13/01:00am - - - - - W 24 30 13 16 - - -
13/12:30am - - - - - WSW 20 24 11 13 - - -
13/12:00am - - - - - WSW 13 17 7 9 - - -
 
Date/Time
EST
Temp
°C
App
Temp
°C
Dew
Point
°C
Rel
Hum
%
Delta-T
°C
Wind Press
QNH
hPa
Press
MSL
hPa
Rain since
9am
mm
Dir  Spd
km/h
Gust
km/h
Spd
kts
Gust
kts
12/11:30pm - - - - - WSW 13 17 7 9 - - -
12/11:00pm - - - - - SW 15 20 8 11 - - -
12/10:30pm - - - - - SW 15 20 8 11 - - -
12/10:00pm - - - - - SW 19 22 10 12 - - -
12/09:30pm - - - - - SSW 20 24 11 13 - - -
12/09:00pm - - - - - SSW 24 28 13 15 - - -
12/08:30pm - - - - - SSW 15 17 8 9 - - -
12/08:00pm - - - - - SSW 22 30 12 16 - - -
12/07:30pm - - - - - S 13 15 7 8 - - -
12/07:00pm - - - - - SSE 7 11 4 6 - - -
12/06:30pm - - - - - S 7 11 4 6 - - -
12/06:00pm - - - - - SSE 7 9 4 5 - - -
12/05:30pm - - - - - S 7 9 4 5 - - -
12/05:00pm - - - - - S 9 11 5 6 - - -
12/04:30pm - - - - - SSW 9 11 5 6 - - -
12/04:00pm - - - - - WSW 9 13 5 7 - - -
12/03:30pm - - - - - WSW 9 11 5 6 - - -
12/03:00pm - - - - - SW 9 11 5 6 - - -
12/02:30pm - - - - - WSW 7 11 4 6 - - -
12/02:00pm - - - - - WSW 9 11 5 6 - - -
12/01:30pm - - - - - WSW 9 15 5 8 - - -
12/01:00pm - - - - - WSW 11 15 6 8 - - -
12/12:30pm - - - - - WSW 13 17 7 9 - - -
12/12:00pm - - - - - WSW 17 22 9 12 - - -
12/11:30am - - - - - WSW 19 24 10 13 - - -
12/11:00am - - - - - WSW 24 28 13 15 - - -
12/10:30am - - - - - WSW 26 30 14 16 - - -
12/10:00am - - - - - WSW 26 32 14 17 - - -
12/09:30am - - - - - WSW 28 33 15 18 - - -
12/09:00am - - - - - WSW 26 30 14 16 - - -
12/08:30am - - - - - WSW 26 32 14 17 - - -
12/08:00am - - - - - WSW 28 32 15 17 - - -
12/07:30am - - - - - WSW 26 28 14 15 - - -
12/07:00am - - - - - WSW 24 28 13 15 - - -
12/06:30am - - - - - WSW 26 30 14 16 - - -
12/06:00am - - - - - SW 24 28 13 15 - - -
12/05:30am - - - - - SW 22 26 12 14 - - -
12/05:00am - - - - - SW 20 24 11 13 - - -
12/04:30am - - - - - WSW 24 28 13 15 - - -
12/04:00am - - - - - WSW 17 24 9 13 - - -
12/03:30am - - - - - ENE 11 13 6 7 - - -
12/03:00am - - - - - ENE 6 9 3 5 - - -
12/02:30am - - - - - ESE 6 9 3 5 - - -
12/02:00am - - - - - NE 9 13 5 7 - - -
12/01:30am - - - - - NE 7 9 4 5 - - -
12/01:00am - - - - - NE 2 7 1 4 - - -
12/12:30am - - - - - ENE 7 13 4 7 - - -
12/12:00am - - - - - ENE 11 13 6 7 - - -
 
Date/Time
EST
Temp
°C
App
Temp
°C
Dew
Point
°C
Rel
Hum
%
Delta-T
°C
Wind Press
QNH
hPa
Press
MSL
hPa
Rain since
9am
mm
Dir  Spd
km/h
Gust
km/h
Spd
kts
Gust
kts
11/11:30pm - - - - - E 13 15 7 8 - - -
11/11:00pm - - - - - E 15 20 8 11 - - -
11/10:30pm - - - - - ENE 13 17 7 9 - - -
11/10:00pm - - - - - SSE 11 15 6 8 - - -
11/09:30pm - - - - - SSE 13 17 7 9 - - -
11/09:00pm - - - - - SSE 15 20 8 11 - - -
11/08:30pm - - - - - SSE 15 20 8 11 - - -
11/08:00pm - - - - - SSE 17 20 9 11 - - -
11/07:30pm - - - - - S 17 22 9 12 - - -
11/07:00pm - - - - - S 17 22 9 12 - - -
11/06:30pm - - - - - S 17 20 9 11 - - -
11/06:00pm - - - - - S 19 24 10 13 - - -
11/05:30pm - - - - - SSW 15 20 8 11 - - -
11/05:00pm - - - - - SSW 17 20 9 11 - - -
11/04:30pm - - - - - S 19 24 10 13 - - -
11/04:00pm - - - - - SSW 19 24 10 13 - - -
11/03:30pm - - - - - SSW 17 22 9 12 - - -
11/03:00pm - - - - - SSW 17 24 9 13 - - -
11/02:30pm - - - - - SSW 19 24 10 13 - - -
11/02:00pm - - - - - SSW 17 22 9 12 - - -
11/01:30pm - - - - - S 17 22 9 12 - - -
11/01:00pm - - - - - S 20 24 11 13 - - -
11/12:30pm - - - - - S 19 24 10 13 - - -

Latest Capital City Observations: Canberra | Sydney | Melbourne | Brisbane | Adelaide | Perth | Hobart | Darwin

Other formats

Comma delimited format used in spreadsheet applications
http://www.bom.gov.au/fwo/IDV60901/IDV60901.95872.axf

JavaScript Object Notation format (JSON) in row-major order
http://www.bom.gov.au/fwo/IDV60901/IDV60901.95872.json

Data quality

Most of these data are generated automatically and are frequently updated. Quality checks on data are not normally performed. It is possible for incorrect values to appear. Refer to information at About Latest Weather Observations and please check the disclaimer before using these data.